sensor_id;sensor_type;location;lat;lon;timestamp;P1;durP1;ratioP1;P2;durP2;ratioP2
10463;SDS011;5279;42.048;24.638;2023-01-01T00:00:20;4.30;;;3.90;;
10463;SDS011;5279;42.048;24.638;2023-01-01T00:02:47;4.60;;;3.57;;
10463;SDS011;5279;42.048;24.638;2023-01-01T00:05:15;5.23;;;4.73;;
10463;SDS011;5279;42.048;24.638;2023-01-01T00:07:44;3.30;;;3.00;;
10463;SDS011;5279;42.048;24.638;2023-01-01T00:10:11;4.10;;;3.70;;
10463;SDS011;5279;42.048;24.638;2023-01-01T00:12:53;3.27;;;2.97;;
10463;SDS011;5279;42.048;24.638;2023-01-01T00:15:21;4.33;;;3.47;;
10463;SDS011;5279;42.048;24.638;2023-01-01T00:17:49;4.83;;;3.13;;
10463;SDS011;5279;42.048;24.638;2023-01-01T00:20:31;3.27;;;2.97;;
10463;SDS011;5279;42.048;24.638;2023-01-01T00:23:01;3.67;;;3.27;;
10463;SDS011;5279;42.048;24.638;2023-01-01T00:25:28;4.10;;;3.60;;
10463;SDS011;5279;42.048;24.638;2023-01-01T00:27:56;4.10;;;3.70;;
10463;SDS011;5279;42.048;24.638;2023-01-01T00:30:23;3.90;;;3.43;;
10463;SDS011;5279;42.048;24.638;2023-01-01T00:32:51;3.93;;;3.50;;
10463;SDS011;5279;42.048;24.638;2023-01-01T00:35:18;4.20;;;3.80;;
10463;SDS011;5279;42.048;24.638;2023-01-01T00:37:45;3.73;;;3.33;;
10463;SDS011;5279;42.048;24.638;2023-01-01T00:40:14;4.33;;;3.57;;
10463;SDS011;5279;42.048;24.638;2023-01-01T00:42:42;3.80;;;3.43;;
10463;SDS011;5279;42.048;24.638;2023-01-01T00:45:10;3.80;;;3.50;;
10463;SDS011;5279;42.048;24.638;2023-01-01T00:47:38;3.80;;;3.50;;
10463;SDS011;5279;42.048;24.638;2023-01-01T00:50:05;4.73;;;3.90;;
10463;SDS011;5279;42.048;24.638;2023-01-01T00:52:32;4.90;;;3.70;;
10463;SDS011;5279;42.048;24.638;2023-01-01T00:55:00;5.47;;;4.27;;
10463;SDS011;5279;42.048;24.638;2023-01-01T00:57:28;5.83;;;4.90;;
10463;SDS011;5279;42.048;24.638;2023-01-01T00:59:56;6.93;;;4.73;;
10463;SDS011;5279;42.048;24.638;2023-01-01T01:02:23;5.33;;;4.13;;
10463;SDS011;5279;42.048;24.638;2023-01-01T01:04:51;5.40;;;4.30;;
10463;SDS011;5279;42.048;24.638;2023-01-01T01:07:18;4.40;;;4.00;;
10463;SDS011;5279;42.048;24.638;2023-01-01T01:09:46;4.50;;;4.03;;
10463;SDS011;5279;42.048;24.638;2023-01-01T01:12:13;4.37;;;3.97;;
10463;SDS011;5279;42.048;24.638;2023-01-01T01:14:42;4.57;;;4.17;;
10463;SDS011;5279;42.048;24.638;2023-01-01T01:17:10;5.57;;;4.87;;
10463;SDS011;5279;42.048;24.638;2023-01-01T01:19:37;7.23;;;4.87;;
10463;SDS011;5279;42.048;24.638;2023-01-01T01:22:05;7.47;;;4.77;;
10463;SDS011;5279;42.048;24.638;2023-01-01T01:24:32;5.80;;;4.83;;
10463;SDS011;5279;42.048;24.638;2023-01-01T01:27:00;6.70;;;5.80;;
10463;SDS011;5279;42.048;24.638;2023-01-01T01:29:27;6.63;;;5.30;;
10463;SDS011;5279;42.048;24.638;2023-01-01T01:31:56;6.67;;;5.20;;
10463;SDS011;5279;42.048;24.638;2023-01-01T01:34:23;4.73;;;4.23;;
10463;SDS011;5279;42.048;24.638;2023-01-01T01:36:50;5.00;;;4.40;;
10463;SDS011;5279;42.048;24.638;2023-01-01T01:39:18;6.07;;;4.80;;
10463;SDS011;5279;42.048;24.638;2023-01-01T01:41:45;5.10;;;4.60;;
10463;SDS011;5279;42.048;24.638;2023-01-01T01:47:15;5.20;;;4.27;;
10463;SDS011;5279;42.048;24.638;2023-01-01T01:49:45;5.20;;;4.70;;
10463;SDS011;5279;42.048;24.638;2023-01-01T01:52:13;6.30;;;4.80;;
10463;SDS011;5279;42.048;24.638;2023-01-01T01:54:41;5.73;;;4.80;;
10463;SDS011;5279;42.048;24.638;2023-01-01T01:57:08;5.20;;;4.43;;
10463;SDS011;5279;42.048;24.638;2023-01-01T01:59:37;4.67;;;4.27;;
10463;SDS011;5279;42.048;24.638;2023-01-01T02:02:09;8.80;;;5.47;;
10463;SDS011;5279;42.048;24.638;2023-01-01T02:04:43;8.03;;;6.63;;
10463;SDS011;5279;42.048;24.638;2023-01-01T02:07:11;7.63;;;6.20;;
10463;SDS011;5279;42.048;24.638;2023-01-01T02:09:40;7.77;;;6.90;;
10463;SDS011;5279;42.048;24.638;2023-01-01T02:12:08;8.43;;;7.10;;
10463;SDS011;5279;42.048;24.638;2023-01-01T02:14:35;7.10;;;6.37;;
10463;SDS011;5279;42.048;24.638;2023-01-01T02:17:06;8.93;;;6.80;;
10463;SDS011;5279;42.048;24.638;2023-01-01T02:19:37;6.97;;;6.33;;
10463;SDS011;5279;42.048;24.638;2023-01-01T02:22:22;7.13;;;5.60;;
10463;SDS011;5279;42.048;24.638;2023-01-01T02:25:00;7.33;;;5.90;;
10463;SDS011;5279;42.048;24.638;2023-01-01T02:27:39;6.97;;;6.27;;
10463;SDS011;5279;42.048;24.638;2023-01-01T02:30:18;8.37;;;6.37;;
10463;SDS011;5279;42.048;24.638;2023-01-01T02:32:48;7.93;;;5.60;;
10463;SDS011;5279;42.048;24.638;2023-01-01T02:35:20;7.90;;;5.40;;
10463;SDS011;5279;42.048;24.638;2023-01-01T02:38:02;7.53;;;4.97;;
10463;SDS011;5279;42.048;24.638;2023-01-01T02:40:32;4.87;;;4.47;;
10463;SDS011;5279;42.048;24.638;2023-01-01T02:43:01;6.17;;;5.10;;
10463;SDS011;5279;42.048;24.638;2023-01-01T02:45:32;5.30;;;4.80;;
10463;SDS011;5279;42.048;24.638;2023-01-01T02:48:02;5.00;;;4.50;;
10463;SDS011;5279;42.048;24.638;2023-01-01T02:50:30;4.77;;;4.27;;
10463;SDS011;5279;42.048;24.638;2023-01-01T02:53:02;5.00;;;4.40;;
10463;SDS011;5279;42.048;24.638;2023-01-01T02:55:42;5.77;;;4.00;;
10463;SDS011;5279;42.048;24.638;2023-01-01T02:58:19;6.20;;;4.20;;
10463;SDS011;5279;42.048;24.638;2023-01-01T03:01:19;4.03;;;3.67;;
10463;SDS011;5279;42.048;24.638;2023-01-01T03:03:55;6.57;;;4.40;;
10463;SDS011;5279;42.048;24.638;2023-01-01T03:06:32;3.53;;;3.20;;
10463;SDS011;5279;42.048;24.638;2023-01-01T03:09:10;4.00;;;3.60;;
10463;SDS011;5279;42.048;24.638;2023-01-01T03:11:45;3.80;;;3.50;;
10463;SDS011;5279;42.048;24.638;2023-01-01T03:14:18;4.40;;;4.00;;
10463;SDS011;5279;42.048;24.638;2023-01-01T03:16:53;5.27;;;4.20;;
10463;SDS011;5279;42.048;24.638;2023-01-01T03:19:29;4.90;;;3.87;;
10463;SDS011;5279;42.048;24.638;2023-01-01T03:22:03;4.33;;;3.93;;
10463;SDS011;5279;42.048;24.638;2023-01-01T03:24:33;3.50;;;3.20;;
10463;SDS011;5279;42.048;24.638;2023-01-01T03:27:03;4.67;;;3.83;;
10463;SDS011;5279;42.048;24.638;2023-01-01T03:29:34;4.93;;;3.57;;
10463;SDS011;5279;42.048;24.638;2023-01-01T03:32:07;4.63;;;3.70;;
10463;SDS011;5279;42.048;24.638;2023-01-01T03:34:39;3.70;;;3.33;;
10463;SDS011;5279;42.048;24.638;2023-01-01T03:37:11;3.77;;;3.43;;
10463;SDS011;5279;42.048;24.638;2023-01-01T03:39:46;3.60;;;3.30;;
10463;SDS011;5279;42.048;24.638;2023-01-01T03:42:17;3.57;;;3.27;;
10463;SDS011;5279;42.048;24.638;2023-01-01T03:44:53;4.43;;;3.27;;
10463;SDS011;5279;42.048;24.638;2023-01-01T03:47:27;3.87;;;3.40;;
10463;SDS011;5279;42.048;24.638;2023-01-01T03:49:55;3.80;;;3.23;;
10463;SDS011;5279;42.048;24.638;2023-01-01T03:52:29;3.90;;;3.50;;
10463;SDS011;5279;42.048;24.638;2023-01-01T03:55:05;5.23;;;3.30;;
10463;SDS011;5279;42.048;24.638;2023-01-01T03:57:41;3.87;;;3.57;;
10463;SDS011;5279;42.048;24.638;2023-01-01T04:00:14;4.87;;;3.50;;
10463;SDS011;5279;42.048;24.638;2023-01-01T04:02:47;3.93;;;3.53;;
10463;SDS011;5279;42.048;24.638;2023-01-01T04:05:17;4.07;;;3.67;;
10463;SDS011;5279;42.048;24.638;2023-01-01T04:07:46;5.00;;;3.80;;
10463;SDS011;5279;42.048;24.638;2023-01-01T04:10:15;5.03;;;3.90;;
10463;SDS011;5279;42.048;24.638;2023-01-01T04:12:43;4.00;;;3.60;;
10463;SDS011;5279;42.048;24.638;2023-01-01T04:15:12;3.80;;;3.40;;
10463;SDS011;5279;42.048;24.638;2023-01-01T04:17:40;4.83;;;3.73;;
10463;SDS011;5279;42.048;24.638;2023-01-01T04:20:10;3.80;;;3.30;;
10463;SDS011;5279;42.048;24.638;2023-01-01T04:22:38;4.03;;;3.40;;
10463;SDS011;5279;42.048;24.638;2023-01-01T04:25:06;3.70;;;3.40;;
10463;SDS011;5279;42.048;24.638;2023-01-01T04:27:34;4.33;;;3.93;;
10463;SDS011;5279;42.048;24.638;2023-01-01T04:30:02;4.40;;;3.50;;
10463;SDS011;5279;42.048;24.638;2023-01-01T04:32:30;3.90;;;3.47;;
10463;SDS011;5279;42.048;24.638;2023-01-01T04:34:57;3.87;;;3.57;;
10463;SDS011;5279;42.048;24.638;2023-01-01T04:37:26;4.57;;;3.47;;
10463;SDS011;5279;42.048;24.638;2023-01-01T04:39:53;3.97;;;3.67;;
10463;SDS011;5279;42.048;24.638;2023-01-01T04:42:20;5.20;;;3.40;;
10463;SDS011;5279;42.048;24.638;2023-01-01T04:44:47;4.07;;;3.27;;
10463;SDS011;5279;42.048;24.638;2023-01-01T04:47:14;3.90;;;3.30;;
10463;SDS011;5279;42.048;24.638;2023-01-01T04:49:41;4.30;;;3.40;;
10463;SDS011;5279;42.048;24.638;2023-01-01T04:52:09;6.43;;;3.40;;
10463;SDS011;5279;42.048;24.638;2023-01-01T04:54:37;4.07;;;3.37;;
10463;SDS011;5279;42.048;24.638;2023-01-01T04:57:05;3.70;;;3.40;;
10463;SDS011;5279;42.048;24.638;2023-01-01T04:59:32;4.03;;;3.47;;
10463;SDS011;5279;42.048;24.638;2023-01-01T05:01:59;5.70;;;4.10;;
10463;SDS011;5279;42.048;24.638;2023-01-01T05:04:26;4.87;;;4.40;;
10463;SDS011;5279;42.048;24.638;2023-01-01T05:06:54;4.93;;;4.07;;
10463;SDS011;5279;42.048;24.638;2023-01-01T05:09:22;6.20;;;4.20;;
10463;SDS011;5279;42.048;24.638;2023-01-01T05:11:52;6.20;;;4.30;;
10463;SDS011;5279;42.048;24.638;2023-01-01T05:14:19;4.47;;;3.93;;
10463;SDS011;5279;42.048;24.638;2023-01-01T05:16:47;5.57;;;3.90;;
10463;SDS011;5279;42.048;24.638;2023-01-01T05:19:14;3.43;;;3.17;;
10463;SDS011;5279;42.048;24.638;2023-01-01T05:21:41;3.97;;;2.93;;
10463;SDS011;5279;42.048;24.638;2023-01-01T05:24:10;3.80;;;3.30;;
10463;SDS011;5279;42.048;24.638;2023-01-01T05:26:37;3.10;;;2.80;;
10463;SDS011;5279;42.048;24.638;2023-01-01T05:29:08;3.30;;;3.00;;
10463;SDS011;5279;42.048;24.638;2023-01-01T05:31:36;3.10;;;2.80;;
10463;SDS011;5279;42.048;24.638;2023-01-01T05:34:03;5.13;;;3.30;;
10463;SDS011;5279;42.048;24.638;2023-01-01T05:36:31;4.37;;;3.97;;
10463;SDS011;5279;42.048;24.638;2023-01-01T05:39:02;6.37;;;5.10;;
10463;SDS011;5279;42.048;24.638;2023-01-01T05:41:31;5.43;;;4.33;;
10463;SDS011;5279;42.048;24.638;2023-01-01T05:44:00;3.70;;;3.30;;
10463;SDS011;5279;42.048;24.638;2023-01-01T05:46:30;3.43;;;3.00;;
10463;SDS011;5279;42.048;24.638;2023-01-01T05:48:57;3.70;;;3.13;;
10463;SDS011;5279;42.048;24.638;2023-01-01T05:51:26;4.53;;;3.23;;
10463;SDS011;5279;42.048;24.638;2023-01-01T05:53:54;5.03;;;3.83;;
10463;SDS011;5279;42.048;24.638;2023-01-01T05:56:23;4.67;;;4.00;;
10463;SDS011;5279;42.048;24.638;2023-01-01T05:58:51;4.70;;;4.20;;
10463;SDS011;5279;42.048;24.638;2023-01-01T06:01:18;4.90;;;3.70;;
10463;SDS011;5279;42.048;24.638;2023-01-01T06:03:49;5.03;;;4.50;;
10463;SDS011;5279;42.048;24.638;2023-01-01T06:06:17;6.90;;;5.27;;
10463;SDS011;5279;42.048;24.638;2023-01-01T06:08:49;6.73;;;5.17;;
10463;SDS011;5279;42.048;24.638;2023-01-01T06:11:17;6.37;;;5.47;;
10463;SDS011;5279;42.048;24.638;2023-01-01T06:13:45;7.00;;;5.60;;
10463;SDS011;5279;42.048;24.638;2023-01-01T06:16:13;4.97;;;4.43;;
10463;SDS011;5279;42.048;24.638;2023-01-01T06:18:40;6.97;;;5.10;;
10463;SDS011;5279;42.048;24.638;2023-01-01T06:21:10;5.43;;;4.93;;
10463;SDS011;5279;42.048;24.638;2023-01-01T06:23:39;5.83;;;4.90;;
10463;SDS011;5279;42.048;24.638;2023-01-01T06:26:07;7.13;;;4.97;;
10463;SDS011;5279;42.048;24.638;2023-01-01T06:28:36;6.57;;;4.87;;
10463;SDS011;5279;42.048;24.638;2023-01-01T06:31:04;6.70;;;5.90;;
10463;SDS011;5279;42.048;24.638;2023-01-01T06:33:35;4.57;;;3.83;;
10463;SDS011;5279;42.048;24.638;2023-01-01T06:36:02;4.40;;;3.83;;
10463;SDS011;5279;42.048;24.638;2023-01-01T06:38:33;5.77;;;3.97;;
10463;SDS011;5279;42.048;24.638;2023-01-01T06:41:03;7.00;;;5.87;;
10463;SDS011;5279;42.048;24.638;2023-01-01T06:43:32;4.77;;;4.10;;
10463;SDS011;5279;42.048;24.638;2023-01-01T06:46:00;3.60;;;3.30;;
10463;SDS011;5279;42.048;24.638;2023-01-01T06:48:30;6.97;;;6.10;;
10463;SDS011;5279;42.048;24.638;2023-01-01T06:51:03;10.70;;;8.00;;
10463;SDS011;5279;42.048;24.638;2023-01-01T06:53:33;7.47;;;5.40;;
10463;SDS011;5279;42.048;24.638;2023-01-01T06:56:00;5.17;;;4.67;;
10463;SDS011;5279;42.048;24.638;2023-01-01T06:58:28;10.63;;;5.53;;
10463;SDS011;5279;42.048;24.638;2023-01-01T07:01:01;6.13;;;5.20;;
10463;SDS011;5279;42.048;24.638;2023-01-01T07:03:29;6.07;;;4.63;;
10463;SDS011;5279;42.048;24.638;2023-01-01T07:05:57;6.03;;;4.63;;
10463;SDS011;5279;42.048;24.638;2023-01-01T07:08:24;5.33;;;4.53;;
10463;SDS011;5279;42.048;24.638;2023-01-01T07:10:53;4.93;;;4.43;;
10463;SDS011;5279;42.048;24.638;2023-01-01T07:13:27;4.87;;;4.37;;
10463;SDS011;5279;42.048;24.638;2023-01-01T07:15:55;5.13;;;4.40;;
10463;SDS011;5279;42.048;24.638;2023-01-01T07:18:23;6.50;;;5.10;;
10463;SDS011;5279;42.048;24.638;2023-01-01T07:20:51;7.13;;;6.40;;
10463;SDS011;5279;42.048;24.638;2023-01-01T07:23:20;8.30;;;7.03;;
10463;SDS011;5279;42.048;24.638;2023-01-01T07:25:47;9.30;;;8.20;;
10463;SDS011;5279;42.048;24.638;2023-01-01T07:28:17;10.33;;;9.00;;
10463;SDS011;5279;42.048;24.638;2023-01-01T07:30:44;13.03;;;9.50;;
10463;SDS011;5279;42.048;24.638;2023-01-01T07:33:12;9.37;;;8.37;;
10463;SDS011;5279;42.048;24.638;2023-01-01T07:35:40;8.53;;;7.63;;
10463;SDS011;5279;42.048;24.638;2023-01-01T07:38:09;9.03;;;7.63;;
10463;SDS011;5279;42.048;24.638;2023-01-01T07:40:36;12.53;;;8.20;;
10463;SDS011;5279;42.048;24.638;2023-01-01T07:43:03;9.30;;;8.30;;
10463;SDS011;5279;42.048;24.638;2023-01-01T07:45:32;11.83;;;9.50;;
10463;SDS011;5279;42.048;24.638;2023-01-01T07:48:00;10.97;;;8.87;;
10463;SDS011;5279;42.048;24.638;2023-01-01T07:50:28;11.53;;;9.60;;
10463;SDS011;5279;42.048;24.638;2023-01-01T07:52:56;13.03;;;9.50;;
10463;SDS011;5279;42.048;24.638;2023-01-01T07:55:24;12.83;;;10.40;;
10463;SDS011;5279;42.048;24.638;2023-01-01T07:57:51;14.83;;;11.83;;
10463;SDS011;5279;42.048;24.638;2023-01-01T08:00:19;12.40;;;10.83;;
10463;SDS011;5279;42.048;24.638;2023-01-01T08:02:48;13.43;;;10.57;;
10463;SDS011;5279;42.048;24.638;2023-01-01T08:05:16;12.90;;;10.73;;
10463;SDS011;5279;42.048;24.638;2023-01-01T08:07:44;12.10;;;10.20;;
10463;SDS011;5279;42.048;24.638;2023-01-01T08:10:13;14.67;;;11.53;;
10463;SDS011;5279;42.048;24.638;2023-01-01T08:12:41;12.70;;;10.53;;
10463;SDS011;5279;42.048;24.638;2023-01-01T08:15:08;13.43;;;11.90;;
10463;SDS011;5279;42.048;24.638;2023-01-01T08:17:36;15.77;;;12.57;;
10463;SDS011;5279;42.048;24.638;2023-01-01T08:20:06;12.97;;;11.53;;
10463;SDS011;5279;42.048;24.638;2023-01-01T08:22:35;16.17;;;13.23;;
10463;SDS011;5279;42.048;24.638;2023-01-01T08:25:02;16.83;;;13.33;;
10463;SDS011;5279;42.048;24.638;2023-01-01T08:27:29;20.30;;;15.27;;
10463;SDS011;5279;42.048;24.638;2023-01-01T08:29:56;18.47;;;15.83;;
10463;SDS011;5279;42.048;24.638;2023-01-01T08:32:23;21.43;;;17.63;;
10463;SDS011;5279;42.048;24.638;2023-01-01T08:34:51;20.30;;;16.23;;
10463;SDS011;5279;42.048;24.638;2023-01-01T08:37:20;19.60;;;17.50;;
10463;SDS011;5279;42.048;24.638;2023-01-01T08:39:48;21.80;;;17.80;;
10463;SDS011;5279;42.048;24.638;2023-01-01T08:42:15;19.43;;;15.60;;
10463;SDS011;5279;42.048;24.638;2023-01-01T08:44:42;17.27;;;15.30;;
10463;SDS011;5279;42.048;24.638;2023-01-01T08:47:15;15.93;;;14.27;;
10463;SDS011;5279;42.048;24.638;2023-01-01T08:49:43;18.33;;;13.40;;
10463;SDS011;5279;42.048;24.638;2023-01-01T08:52:11;16.10;;;14.03;;
10463;SDS011;5279;42.048;24.638;2023-01-01T08:54:39;19.30;;;13.77;;
10463;SDS011;5279;42.048;24.638;2023-01-01T08:57:07;16.13;;;13.33;;
10463;SDS011;5279;42.048;24.638;2023-01-01T08:59:34;16.20;;;11.90;;
10463;SDS011;5279;42.048;24.638;2023-01-01T09:02:01;13.10;;;11.70;;
10463;SDS011;5279;42.048;24.638;2023-01-01T09:04:28;12.47;;;11.20;;
10463;SDS011;5279;42.048;24.638;2023-01-01T09:06:56;11.73;;;10.57;;
10463;SDS011;5279;42.048;24.638;2023-01-01T09:09:23;12.50;;;10.60;;
10463;SDS011;5279;42.048;24.638;2023-01-01T09:11:51;9.90;;;8.90;;
10463;SDS011;5279;42.048;24.638;2023-01-01T09:14:20;8.77;;;7.87;;
10463;SDS011;5279;42.048;24.638;2023-01-01T09:16:48;8.23;;;7.43;;
10463;SDS011;5279;42.048;24.638;2023-01-01T09:19:15;8.40;;;7.60;;
10463;SDS011;5279;42.048;24.638;2023-01-01T09:21:42;10.63;;;8.33;;
10463;SDS011;5279;42.048;24.638;2023-01-01T09:24:09;9.10;;;8.30;;
10463;SDS011;5279;42.048;24.638;2023-01-01T09:26:37;9.80;;;8.63;;
10463;SDS011;5279;42.048;24.638;2023-01-01T09:29:05;8.67;;;7.20;;
10463;SDS011;5279;42.048;24.638;2023-01-01T09:31:32;8.50;;;7.70;;
10463;SDS011;5279;42.048;24.638;2023-01-01T09:33:59;11.07;;;8.07;;
10463;SDS011;5279;42.048;24.638;2023-01-01T09:36:27;4.97;;;4.57;;
10463;SDS011;5279;42.048;24.638;2023-01-01T09:38:56;7.93;;;7.13;;
10463;SDS011;5279;42.048;24.638;2023-01-01T09:41:26;8.90;;;8.10;;
10463;SDS011;5279;42.048;24.638;2023-01-01T09:44:02;11.07;;;9.23;;
10463;SDS011;5279;42.048;24.638;2023-01-01T09:46:40;10.90;;;9.80;;
10463;SDS011;5279;42.048;24.638;2023-01-01T09:49:09;13.17;;;11.97;;
10463;SDS011;5279;42.048;24.638;2023-01-01T09:51:42;12.47;;;11.27;;
10463;SDS011;5279;42.048;24.638;2023-01-01T09:54:14;13.33;;;11.50;;
10463;SDS011;5279;42.048;24.638;2023-01-01T09:56:50;12.23;;;10.93;;
10463;SDS011;5279;42.048;24.638;2023-01-01T09:59:24;12.25;;;11.13;;
10463;SDS011;5279;42.048;24.638;2023-01-01T10:01:53;12.37;;;11.10;;
10463;SDS011;5279;42.048;24.638;2023-01-01T10:04:37;10.77;;;9.73;;
10463;SDS011;5279;42.048;24.638;2023-01-01T10:07:17;11.67;;;10.40;;
10463;SDS011;5279;42.048;24.638;2023-01-01T10:09:51;11.33;;;10.23;;
10463;SDS011;5279;42.048;24.638;2023-01-01T10:12:29;10.77;;;9.68;;
10463;SDS011;5279;42.048;24.638;2023-01-01T10:15:10;11.52;;;10.40;;
10463;SDS011;5279;42.048;24.638;2023-01-01T10:17:42;13.88;;;12.50;;
10463;SDS011;5279;42.048;24.638;2023-01-01T10:20:14;12.18;;;11.07;;
10463;SDS011;5279;42.048;24.638;2023-01-01T10:22:46;13.10;;;11.77;;
10463;SDS011;5279;42.048;24.638;2023-01-01T10:25:18;13.43;;;12.10;;
10463;SDS011;5279;42.048;24.638;2023-01-01T10:27:49;13.35;;;12.05;;
10463;SDS011;5279;42.048;24.638;2023-01-01T10:30:21;13.68;;;11.95;;
10463;SDS011;5279;42.048;24.638;2023-01-01T10:32:49;13.60;;;11.68;;
10463;SDS011;5279;42.048;24.638;2023-01-01T10:35:18;13.23;;;11.32;;
10463;SDS011;5279;42.048;24.638;2023-01-01T10:37:47;12.30;;;11.02;;
10463;SDS011;5279;42.048;24.638;2023-01-01T10:40:18;12.88;;;10.90;;
10463;SDS011;5279;42.048;24.638;2023-01-01T10:42:47;11.75;;;10.75;;
10463;SDS011;5279;42.048;24.638;2023-01-01T10:45:16;12.05;;;10.55;;
10463;SDS011;5279;42.048;24.638;2023-01-01T10:50:43;11.80;;;10.68;;
10463;SDS011;5279;42.048;24.638;2023-01-01T10:53:20;12.80;;;10.68;;
10463;SDS011;5279;42.048;24.638;2023-01-01T10:55:50;10.63;;;8.95;;
10463;SDS011;5279;42.048;24.638;2023-01-01T10:58:24;10.57;;;9.57;;
10463;SDS011;5279;42.048;24.638;2023-01-01T11:00:56;11.50;;;10.20;;
10463;SDS011;5279;42.048;24.638;2023-01-01T11:03:26;11.90;;;9.77;;
10463;SDS011;5279;42.048;24.638;2023-01-01T11:06:00;11.48;;;10.32;;
10463;SDS011;5279;42.048;24.638;2023-01-01T11:08:29;11.07;;;9.77;;
10463;SDS011;5279;42.048;24.638;2023-01-01T11:10:58;9.90;;;9.00;;
10463;SDS011;5279;42.048;24.638;2023-01-01T11:13:27;9.43;;;8.52;;
10463;SDS011;5279;42.048;24.638;2023-01-01T11:15:55;8.25;;;7.45;;
10463;SDS011;5279;42.048;24.638;2023-01-01T11:18:24;9.50;;;8.52;;
10463;SDS011;5279;42.048;24.638;2023-01-01T11:21:00;7.82;;;7.03;;
10463;SDS011;5279;42.048;24.638;2023-01-01T11:23:29;8.32;;;7.43;;
10463;SDS011;5279;42.048;24.638;2023-01-01T11:25:59;8.23;;;7.30;;
10463;SDS011;5279;42.048;24.638;2023-01-01T11:28:28;9.27;;;7.53;;
10463;SDS011;5279;42.048;24.638;2023-01-01T11:31:05;8.95;;;6.50;;
10463;SDS011;5279;42.048;24.638;2023-01-01T11:33:42;7.05;;;6.35;;
10463;SDS011;5279;42.048;24.638;2023-01-01T11:36:11;6.20;;;5.68;;
10463;SDS011;5279;42.048;24.638;2023-01-01T11:38:46;6.15;;;5.55;;
10463;SDS011;5279;42.048;24.638;2023-01-01T11:41:14;8.15;;;6.45;;
10463;SDS011;5279;42.048;24.638;2023-01-01T11:43:42;8.00;;;7.30;;
10463;SDS011;5279;42.048;24.638;2023-01-01T11:46:15;8.05;;;7.30;;
10463;SDS011;5279;42.048;24.638;2023-01-01T11:48:49;7.95;;;6.93;;
10463;SDS011;5279;42.048;24.638;2023-01-01T11:51:27;8.00;;;7.30;;
10463;SDS011;5279;42.048;24.638;2023-01-01T11:54:09;8.52;;;7.72;;
10463;SDS011;5279;42.048;24.638;2023-01-01T11:56:43;10.00;;;7.68;;
10463;SDS011;5279;42.048;24.638;2023-01-01T11:59:13;7.82;;;7.00;;
10463;SDS011;5279;42.048;24.638;2023-01-01T12:01:43;7.43;;;6.68;;
10463;SDS011;5279;42.048;24.638;2023-01-01T12:04:15;8.13;;;7.43;;
10463;SDS011;5279;42.048;24.638;2023-01-01T12:06:46;7.35;;;6.65;;
10463;SDS011;5279;42.048;24.638;2023-01-01T12:09:20;6.90;;;6.30;;
10463;SDS011;5279;42.048;24.638;2023-01-01T12:11:50;8.70;;;6.03;;
10463;SDS011;5279;42.048;24.638;2023-01-01T12:14:21;7.43;;;5.90;;
10463;SDS011;5279;42.048;24.638;2023-01-01T12:16:54;6.82;;;6.22;;
10463;SDS011;5279;42.048;24.638;2023-01-01T12:19:30;7.50;;;6.53;;
10463;SDS011;5279;42.048;24.638;2023-01-01T12:22:01;7.35;;;6.65;;
10463;SDS011;5279;42.048;24.638;2023-01-01T12:24:31;8.88;;;6.22;;
10463;SDS011;5279;42.048;24.638;2023-01-01T12:27:04;7.72;;;6.35;;
10463;SDS011;5279;42.048;24.638;2023-01-01T12:29:45;6.90;;;6.30;;
10463;SDS011;5279;42.048;24.638;2023-01-01T12:32:22;7.00;;;6.40;;
10463;SDS011;5279;42.048;24.638;2023-01-01T12:35:01;8.43;;;6.30;;
10463;SDS011;5279;42.048;24.638;2023-01-01T12:37:38;7.55;;;6.85;;
10463;SDS011;5279;42.048;24.638;2023-01-01T12:40:29;7.32;;;6.70;;
10463;SDS011;5279;42.048;24.638;2023-01-01T12:43:05;7.15;;;6.32;;
10463;SDS011;5279;42.048;24.638;2023-01-01T12:45:41;7.25;;;6.55;;
10463;SDS011;5279;42.048;24.638;2023-01-01T12:48:24;11.20;;;7.53;;
10463;SDS011;5279;42.048;24.638;2023-01-01T12:51:12;7.97;;;7.18;;
10463;SDS011;5279;42.048;24.638;2023-01-01T12:53:52;8.25;;;7.07;;
10463;SDS011;5279;42.048;24.638;2023-01-01T12:56:28;8.07;;;6.78;;
10463;SDS011;5279;42.048;24.638;2023-01-01T12:59:02;8.13;;;7.32;;
10463;SDS011;5279;42.048;24.638;2023-01-01T13:01:32;8.00;;;7.25;;
10463;SDS011;5279;42.048;24.638;2023-01-01T13:04:02;7.95;;;6.95;;
10463;SDS011;5279;42.048;24.638;2023-01-01T13:06:33;7.60;;;6.75;;
10463;SDS011;5279;42.048;24.638;2023-01-01T13:09:06;7.47;;;6.78;;
10463;SDS011;5279;42.048;24.638;2023-01-01T13:11:36;7.97;;;6.78;;
10463;SDS011;5279;42.048;24.638;2023-01-01T13:14:05;7.70;;;6.90;;
10463;SDS011;5279;42.048;24.638;2023-01-01T13:16:34;7.20;;;6.50;;
10463;SDS011;5279;42.048;24.638;2023-01-01T13:19:03;7.22;;;6.40;;
10463;SDS011;5279;42.048;24.638;2023-01-01T13:21:30;7.53;;;6.82;;
10463;SDS011;5279;42.048;24.638;2023-01-01T13:24:17;7.07;;;6.38;;
10463;SDS011;5279;42.048;24.638;2023-01-01T13:26:46;9.70;;;7.22;;
10463;SDS011;5279;42.048;24.638;2023-01-01T13:32:10;7.80;;;6.57;;
10463;SDS011;5279;42.048;24.638;2023-01-01T13:34:57;8.48;;;7.28;;
10463;SDS011;5279;42.048;24.638;2023-01-01T13:43:31;7.65;;;6.88;;
10463;SDS011;5279;42.048;24.638;2023-01-01T13:45:58;7.63;;;6.80;;
10463;SDS011;5279;42.048;24.638;2023-01-01T13:48:41;8.10;;;7.15;;
10463;SDS011;5279;42.048;24.638;2023-01-01T13:51:28;8.20;;;7.40;;
10463;SDS011;5279;42.048;24.638;2023-01-01T13:54:14;10.55;;;6.70;;
10463;SDS011;5279;42.048;24.638;2023-01-01T13:57:13;7.57;;;6.88;;
10463;SDS011;5279;42.048;24.638;2023-01-01T14:00:01;7.40;;;6.60;;
10463;SDS011;5279;42.048;24.638;2023-01-01T14:02:41;8.13;;;7.32;;
10463;SDS011;5279;42.048;24.638;2023-01-01T14:05:13;7.30;;;6.70;;
10463;SDS011;5279;42.048;24.638;2023-01-01T14:07:43;7.05;;;6.35;;
10463;SDS011;5279;42.048;24.638;2023-01-01T14:10:17;6.65;;;6.00;;
10463;SDS011;5279;42.048;24.638;2023-01-01T14:12:52;8.20;;;6.90;;
10463;SDS011;5279;42.048;24.638;2023-01-01T14:15:27;9.43;;;8.30;;
10463;SDS011;5279;42.048;24.638;2023-01-01T14:17:57;9.77;;;8.40;;
10463;SDS011;5279;42.048;24.638;2023-01-01T14:20:28;9.23;;;7.97;;
10463;SDS011;5279;42.048;24.638;2023-01-01T14:23:03;9.17;;;6.70;;
10463;SDS011;5279;42.048;24.638;2023-01-01T14:25:32;7.50;;;5.50;;
10463;SDS011;5279;42.048;24.638;2023-01-01T14:27:59;6.83;;;5.90;;
10463;SDS011;5279;42.048;24.638;2023-01-01T14:30:29;8.17;;;6.90;;
10463;SDS011;5279;42.048;24.638;2023-01-01T14:32:59;7.40;;;6.63;;
10463;SDS011;5279;42.048;24.638;2023-01-01T14:35:27;9.30;;;7.03;;
10463;SDS011;5279;42.048;24.638;2023-01-01T14:37:55;7.23;;;5.33;;
10463;SDS011;5279;42.048;24.638;2023-01-01T14:40:23;8.33;;;6.50;;
10463;SDS011;5279;42.048;24.638;2023-01-01T14:42:58;7.73;;;6.20;;
10463;SDS011;5279;42.048;24.638;2023-01-01T14:45:31;9.53;;;8.53;;
10463;SDS011;5279;42.048;24.638;2023-01-01T14:48:00;6.83;;;5.80;;
10463;SDS011;5279;42.048;24.638;2023-01-01T14:50:29;8.47;;;6.27;;
10463;SDS011;5279;42.048;24.638;2023-01-01T14:53:01;7.13;;;6.40;;
10463;SDS011;5279;42.048;24.638;2023-01-01T14:55:31;10.83;;;8.53;;
10463;SDS011;5279;42.048;24.638;2023-01-01T14:58:04;9.63;;;6.43;;
10463;SDS011;5279;42.048;24.638;2023-01-01T15:00:33;10.47;;;7.23;;
10463;SDS011;5279;42.048;24.638;2023-01-01T15:03:03;12.00;;;10.63;;
10463;SDS011;5279;42.048;24.638;2023-01-01T15:05:33;7.67;;;6.83;;
10463;SDS011;5279;42.048;24.638;2023-01-01T15:08:01;6.37;;;5.17;;
10463;SDS011;5279;42.048;24.638;2023-01-01T15:10:31;6.27;;;5.00;;
10463;SDS011;5279;42.048;24.638;2023-01-01T15:13:03;8.03;;;5.40;;
10463;SDS011;5279;42.048;24.638;2023-01-01T15:15:40;8.87;;;6.50;;
10463;SDS011;5279;42.048;24.638;2023-01-01T15:21:03;10.03;;;8.13;;